sensor_id;sensor_type;location;lat;lon;timestamp;P1;durP1;ratioP1;P2;durP2;ratioP2
56726;SDS011;42609;52.700;6.236;2023-04-15T00:00:28;9.70;;;5.05;;
56726;SDS011;42609;52.700;6.236;2023-04-15T00:02:53;11.35;;;4.93;;
56726;SDS011;42609;52.700;6.236;2023-04-15T00:05:19;11.50;;;5.45;;
56726;SDS011;42609;52.700;6.236;2023-04-15T00:07:45;10.20;;;5.18;;
56726;SDS011;42609;52.700;6.236;2023-04-15T00:10:11;11.35;;;4.70;;
56726;SDS011;42609;52.700;6.236;2023-04-15T00:12:38;12.38;;;4.90;;
56726;SDS011;42609;52.700;6.236;2023-04-15T00:15:04;10.00;;;5.18;;
56726;SDS011;42609;52.700;6.236;2023-04-15T00:17:30;8.88;;;4.85;;
56726;SDS011;42609;52.700;6.236;2023-04-15T00:19:56;10.48;;;4.78;;
56726;SDS011;42609;52.700;6.236;2023-04-15T00:22:23;8.85;;;5.15;;
56726;SDS011;42609;52.700;6.236;2023-04-15T00:24:51;7.38;;;4.70;;
56726;SDS011;42609;52.700;6.236;2023-04-15T00:27:17;11.65;;;5.15;;
56726;SDS011;42609;52.700;6.236;2023-04-15T00:29:43;8.45;;;5.22;;
56726;SDS011;42609;52.700;6.236;2023-04-15T00:32:09;10.82;;;5.78;;
56726;SDS011;42609;52.700;6.236;2023-04-15T00:34:34;8.52;;;5.13;;
56726;SDS011;42609;52.700;6.236;2023-04-15T00:37:01;9.40;;;4.90;;
56726;SDS011;42609;52.700;6.236;2023-04-15T00:39:26;8.85;;;4.93;;
56726;SDS011;42609;52.700;6.236;2023-04-15T00:41:52;9.13;;;5.15;;
56726;SDS011;42609;52.700;6.236;2023-04-15T00:44:18;9.05;;;5.15;;
56726;SDS011;42609;52.700;6.236;2023-04-15T00:46:44;10.20;;;4.97;;
56726;SDS011;42609;52.700;6.236;2023-04-15T00:49:10;9.77;;;4.93;;
56726;SDS011;42609;52.700;6.236;2023-04-15T00:51:37;11.15;;;5.20;;
56726;SDS011;42609;52.700;6.236;2023-04-15T00:54:03;11.15;;;5.03;;
56726;SDS011;42609;52.700;6.236;2023-04-15T00:56:29;8.32;;;4.55;;
56726;SDS011;42609;52.700;6.236;2023-04-15T00:58:55;9.85;;;4.93;;
56726;SDS011;42609;52.700;6.236;2023-04-15T01:01:23;9.57;;;5.18;;
56726;SDS011;42609;52.700;6.236;2023-04-15T01:03:50;10.15;;;5.38;;
56726;SDS011;42609;52.700;6.236;2023-04-15T01:06:16;10.45;;;5.22;;
56726;SDS011;42609;52.700;6.236;2023-04-15T01:08:42;11.63;;;5.25;;
56726;SDS011;42609;52.700;6.236;2023-04-15T01:11:08;9.63;;;5.00;;
56726;SDS011;42609;52.700;6.236;2023-04-15T01:13:36;11.57;;;5.45;;
56726;SDS011;42609;52.700;6.236;2023-04-15T01:16:02;9.13;;;5.10;;
56726;SDS011;42609;52.700;6.236;2023-04-15T01:18:28;9.27;;;5.25;;
56726;SDS011;42609;52.700;6.236;2023-04-15T01:20:54;11.50;;;5.80;;
56726;SDS011;42609;52.700;6.236;2023-04-15T01:23:20;9.90;;;5.05;;
56726;SDS011;42609;52.700;6.236;2023-04-15T01:25:49;9.15;;;5.20;;
56726;SDS011;42609;52.700;6.236;2023-04-15T01:28:15;9.90;;;5.32;;
56726;SDS011;42609;52.700;6.236;2023-04-15T01:30:41;8.95;;;4.90;;
56726;SDS011;42609;52.700;6.236;2023-04-15T01:33:07;8.88;;;5.28;;
56726;SDS011;42609;52.700;6.236;2023-04-15T01:35:33;10.18;;;4.85;;
56726;SDS011;42609;52.700;6.236;2023-04-15T01:38:02;11.20;;;5.07;;
56726;SDS011;42609;52.700;6.236;2023-04-15T01:40:33;10.30;;;5.53;;
56726;SDS011;42609;52.700;6.236;2023-04-15T01:42:59;9.20;;;5.20;;
56726;SDS011;42609;52.700;6.236;2023-04-15T01:45:26;8.25;;;5.00;;
56726;SDS011;42609;52.700;6.236;2023-04-15T01:47:52;10.38;;;5.32;;
56726;SDS011;42609;52.700;6.236;2023-04-15T01:50:18;10.48;;;4.95;;
56726;SDS011;42609;52.700;6.236;2023-04-15T01:52:44;11.48;;;5.50;;
56726;SDS011;42609;52.700;6.236;2023-04-15T01:55:11;8.05;;;5.30;;
56726;SDS011;42609;52.700;6.236;2023-04-15T01:57:37;10.57;;;5.85;;
56726;SDS011;42609;52.700;6.236;2023-04-15T02:00:03;11.35;;;5.55;;
56726;SDS011;42609;52.700;6.236;2023-04-15T02:02:29;10.85;;;5.60;;
56726;SDS011;42609;52.700;6.236;2023-04-15T02:04:54;9.43;;;5.53;;
56726;SDS011;42609;52.700;6.236;2023-04-15T02:07:20;13.48;;;6.20;;
56726;SDS011;42609;52.700;6.236;2023-04-15T02:09:46;10.52;;;5.95;;
56726;SDS011;42609;52.700;6.236;2023-04-15T02:12:11;8.65;;;5.18;;
56726;SDS011;42609;52.700;6.236;2023-04-15T02:14:37;8.05;;;5.55;;
56726;SDS011;42609;52.700;6.236;2023-04-15T02:17:03;10.93;;;5.25;;
56726;SDS011;42609;52.700;6.236;2023-04-15T02:19:35;10.82;;;5.85;;
56726;SDS011;42609;52.700;6.236;2023-04-15T02:22:01;9.52;;;5.25;;
56726;SDS011;42609;52.700;6.236;2023-04-15T02:24:27;9.10;;;5.72;;
56726;SDS011;42609;52.700;6.236;2023-04-15T02:26:54;8.13;;;4.95;;
56726;SDS011;42609;52.700;6.236;2023-04-15T02:29:20;8.02;;;5.07;;
56726;SDS011;42609;52.700;6.236;2023-04-15T02:31:47;11.38;;;5.68;;
56726;SDS011;42609;52.700;6.236;2023-04-15T02:34:12;10.05;;;5.30;;
56726;SDS011;42609;52.700;6.236;2023-04-15T02:36:38;10.23;;;5.10;;
56726;SDS011;42609;52.700;6.236;2023-04-15T02:39:04;8.57;;;5.47;;
56726;SDS011;42609;52.700;6.236;2023-04-15T02:41:30;11.38;;;5.93;;
56726;SDS011;42609;52.700;6.236;2023-04-15T02:43:56;11.85;;;5.20;;
56726;SDS011;42609;52.700;6.236;2023-04-15T02:46:21;10.15;;;5.80;;
56726;SDS011;42609;52.700;6.236;2023-04-15T02:48:50;8.52;;;5.10;;
56726;SDS011;42609;52.700;6.236;2023-04-15T02:51:18;11.80;;;5.85;;
56726;SDS011;42609;52.700;6.236;2023-04-15T02:53:45;8.90;;;5.32;;
56726;SDS011;42609;52.700;6.236;2023-04-15T02:56:11;9.00;;;5.65;;
56726;SDS011;42609;52.700;6.236;2023-04-15T02:58:38;11.73;;;5.47;;
56726;SDS011;42609;52.700;6.236;2023-04-15T03:01:04;9.75;;;5.93;;
56726;SDS011;42609;52.700;6.236;2023-04-15T03:03:31;9.10;;;5.97;;
56726;SDS011;42609;52.700;6.236;2023-04-15T03:05:57;12.40;;;6.35;;
56726;SDS011;42609;52.700;6.236;2023-04-15T03:08:22;10.85;;;6.07;;
56726;SDS011;42609;52.700;6.236;2023-04-15T03:10:48;11.18;;;5.78;;
56726;SDS011;42609;52.700;6.236;2023-04-15T03:13:16;9.88;;;6.00;;
56726;SDS011;42609;52.700;6.236;2023-04-15T03:15:42;9.73;;;5.93;;
56726;SDS011;42609;52.700;6.236;2023-04-15T03:18:07;11.27;;;5.72;;
56726;SDS011;42609;52.700;6.236;2023-04-15T03:20:33;11.55;;;5.90;;
56726;SDS011;42609;52.700;6.236;2023-04-15T03:22:59;11.10;;;6.60;;
56726;SDS011;42609;52.700;6.236;2023-04-15T03:25:25;10.25;;;5.95;;
56726;SDS011;42609;52.700;6.236;2023-04-15T03:27:51;11.20;;;5.97;;
56726;SDS011;42609;52.700;6.236;2023-04-15T03:30:17;10.77;;;5.85;;
56726;SDS011;42609;52.700;6.236;2023-04-15T03:32:42;12.90;;;5.32;;
56726;SDS011;42609;52.700;6.236;2023-04-15T03:35:08;10.60;;;6.05;;
56726;SDS011;42609;52.700;6.236;2023-04-15T03:37:33;9.85;;;6.05;;
56726;SDS011;42609;52.700;6.236;2023-04-15T03:39:59;9.15;;;5.90;;
56726;SDS011;42609;52.700;6.236;2023-04-15T03:42:25;10.77;;;6.80;;
56726;SDS011;42609;52.700;6.236;2023-04-15T03:44:51;10.43;;;5.85;;
56726;SDS011;42609;52.700;6.236;2023-04-15T03:47:16;10.85;;;6.30;;
56726;SDS011;42609;52.700;6.236;2023-04-15T03:49:42;9.38;;;6.45;;
56726;SDS011;42609;52.700;6.236;2023-04-15T03:52:07;12.05;;;6.93;;
56726;SDS011;42609;52.700;6.236;2023-04-15T03:54:33;10.82;;;6.18;;
56726;SDS011;42609;52.700;6.236;2023-04-15T03:56:58;11.98;;;6.75;;
56726;SDS011;42609;52.700;6.236;2023-04-15T03:59:26;8.95;;;5.85;;
56726;SDS011;42609;52.700;6.236;2023-04-15T04:01:51;9.15;;;6.15;;
56726;SDS011;42609;52.700;6.236;2023-04-15T04:04:17;10.90;;;5.93;;
56726;SDS011;42609;52.700;6.236;2023-04-15T04:06:43;9.80;;;6.80;;
56726;SDS011;42609;52.700;6.236;2023-04-15T04:09:08;14.23;;;7.03;;
56726;SDS011;42609;52.700;6.236;2023-04-15T04:11:34;11.65;;;7.13;;
56726;SDS011;42609;52.700;6.236;2023-04-15T04:14:01;12.32;;;7.65;;
56726;SDS011;42609;52.700;6.236;2023-04-15T04:16:27;11.20;;;6.93;;
56726;SDS011;42609;52.700;6.236;2023-04-15T04:18:52;13.05;;;7.80;;
56726;SDS011;42609;52.700;6.236;2023-04-15T04:21:18;11.43;;;6.70;;
56726;SDS011;42609;52.700;6.236;2023-04-15T04:23:45;11.40;;;7.70;;
56726;SDS011;42609;52.700;6.236;2023-04-15T04:26:10;12.13;;;6.95;;
56726;SDS011;42609;52.700;6.236;2023-04-15T04:28:36;12.45;;;7.60;;
56726;SDS011;42609;52.700;6.236;2023-04-15T04:31:03;11.73;;;7.75;;
56726;SDS011;42609;52.700;6.236;2023-04-15T04:33:29;13.05;;;8.43;;
56726;SDS011;42609;52.700;6.236;2023-04-15T04:35:55;11.45;;;7.43;;
56726;SDS011;42609;52.700;6.236;2023-04-15T04:38:20;12.70;;;7.38;;
56726;SDS011;42609;52.700;6.236;2023-04-15T04:40:46;11.90;;;8.38;;
56726;SDS011;42609;52.700;6.236;2023-04-15T04:43:11;14.05;;;8.93;;
56726;SDS011;42609;52.700;6.236;2023-04-15T04:45:37;14.27;;;8.15;;
56726;SDS011;42609;52.700;6.236;2023-04-15T04:48:02;12.50;;;8.18;;
56726;SDS011;42609;52.700;6.236;2023-04-15T04:50:31;14.65;;;8.13;;
56726;SDS011;42609;52.700;6.236;2023-04-15T04:52:56;12.18;;;7.75;;
56726;SDS011;42609;52.700;6.236;2023-04-15T04:55:22;13.40;;;8.30;;
56726;SDS011;42609;52.700;6.236;2023-04-15T04:57:47;14.00;;;8.38;;
56726;SDS011;42609;52.700;6.236;2023-04-15T05:00:13;13.48;;;8.75;;
56726;SDS011;42609;52.700;6.236;2023-04-15T05:02:39;18.60;;;10.25;;
56726;SDS011;42609;52.700;6.236;2023-04-15T05:05:07;14.07;;;8.25;;
56726;SDS011;42609;52.700;6.236;2023-04-15T05:07:33;13.80;;;8.60;;
56726;SDS011;42609;52.700;6.236;2023-04-15T05:09:59;13.30;;;8.18;;
56726;SDS011;42609;52.700;6.236;2023-04-15T05:12:25;12.60;;;8.15;;
56726;SDS011;42609;52.700;6.236;2023-04-15T05:14:50;13.13;;;8.48;;
56726;SDS011;42609;52.700;6.236;2023-04-15T05:17:16;12.90;;;8.50;;
56726;SDS011;42609;52.700;6.236;2023-04-15T05:19:41;12.18;;;8.20;;
56726;SDS011;42609;52.700;6.236;2023-04-15T05:22:07;12.00;;;8.88;;
56726;SDS011;42609;52.700;6.236;2023-04-15T05:24:32;13.27;;;8.52;;
56726;SDS011;42609;52.700;6.236;2023-04-15T05:26:58;13.60;;;8.60;;
56726;SDS011;42609;52.700;6.236;2023-04-15T05:29:25;17.55;;;9.15;;
56726;SDS011;42609;52.700;6.236;2023-04-15T05:31:51;14.65;;;8.93;;
56726;SDS011;42609;52.700;6.236;2023-04-15T05:34:16;12.23;;;8.48;;
56726;SDS011;42609;52.700;6.236;2023-04-15T05:36:42;12.50;;;8.55;;
56726;SDS011;42609;52.700;6.236;2023-04-15T05:39:07;15.93;;;9.75;;
56726;SDS011;42609;52.700;6.236;2023-04-15T05:41:33;14.88;;;8.30;;
56726;SDS011;42609;52.700;6.236;2023-04-15T05:43:59;13.73;;;8.60;;
56726;SDS011;42609;52.700;6.236;2023-04-15T05:46:25;13.90;;;9.07;;
56726;SDS011;42609;52.700;6.236;2023-04-15T05:48:51;13.77;;;8.90;;
56726;SDS011;42609;52.700;6.236;2023-04-15T05:51:17;12.02;;;8.80;;
56726;SDS011;42609;52.700;6.236;2023-04-15T05:53:42;14.40;;;9.30;;
56726;SDS011;42609;52.700;6.236;2023-04-15T05:56:08;16.02;;;9.90;;
56726;SDS011;42609;52.700;6.236;2023-04-15T05:58:33;16.23;;;9.80;;
56726;SDS011;42609;52.700;6.236;2023-04-15T06:00:59;14.95;;;9.55;;
56726;SDS011;42609;52.700;6.236;2023-04-15T06:03:25;17.52;;;9.50;;
56726;SDS011;42609;52.700;6.236;2023-04-15T06:05:51;16.90;;;10.05;;
56726;SDS011;42609;52.700;6.236;2023-04-15T06:08:16;16.38;;;10.10;;
56726;SDS011;42609;52.700;6.236;2023-04-15T06:10:42;17.00;;;11.20;;
56726;SDS011;42609;52.700;6.236;2023-04-15T06:13:08;16.23;;;10.10;;
56726;SDS011;42609;52.700;6.236;2023-04-15T06:15:34;15.52;;;10.48;;
56726;SDS011;42609;52.700;6.236;2023-04-15T06:17:59;18.27;;;11.07;;
56726;SDS011;42609;52.700;6.236;2023-04-15T06:20:25;18.27;;;11.50;;
56726;SDS011;42609;52.700;6.236;2023-04-15T06:22:50;15.43;;;10.27;;
56726;SDS011;42609;52.700;6.236;2023-04-15T06:25:16;15.77;;;10.73;;
56726;SDS011;42609;52.700;6.236;2023-04-15T06:27:42;17.58;;;11.00;;
56726;SDS011;42609;52.700;6.236;2023-04-15T06:30:07;18.02;;;11.40;;
56726;SDS011;42609;52.700;6.236;2023-04-15T06:32:33;19.88;;;10.75;;
56726;SDS011;42609;52.700;6.236;2023-04-15T06:34:59;15.63;;;10.32;;
56726;SDS011;42609;52.700;6.236;2023-04-15T06:37:25;14.98;;;9.73;;
56726;SDS011;42609;52.700;6.236;2023-04-15T06:39:50;15.73;;;10.48;;
56726;SDS011;42609;52.700;6.236;2023-04-15T06:42:16;15.13;;;10.07;;
56726;SDS011;42609;52.700;6.236;2023-04-15T06:44:42;16.73;;;10.90;;
56726;SDS011;42609;52.700;6.236;2023-04-15T06:47:07;17.80;;;10.63;;
56726;SDS011;42609;52.700;6.236;2023-04-15T06:49:33;14.60;;;9.52;;
56726;SDS011;42609;52.700;6.236;2023-04-15T06:51:59;16.83;;;11.25;;
56726;SDS011;42609;52.700;6.236;2023-04-15T06:54:25;14.68;;;10.13;;
56726;SDS011;42609;52.700;6.236;2023-04-15T06:56:51;15.48;;;10.32;;
56726;SDS011;42609;52.700;6.236;2023-04-15T06:59:17;17.35;;;10.05;;
56726;SDS011;42609;52.700;6.236;2023-04-15T07:01:42;17.75;;;11.00;;
56726;SDS011;42609;52.700;6.236;2023-04-15T07:04:08;17.42;;;10.73;;
56726;SDS011;42609;52.700;6.236;2023-04-15T07:06:34;15.68;;;10.77;;
56726;SDS011;42609;52.700;6.236;2023-04-15T07:08:59;15.82;;;10.07;;
56726;SDS011;42609;52.700;6.236;2023-04-15T07:11:27;15.50;;;10.25;;
56726;SDS011;42609;52.700;6.236;2023-04-15T07:13:53;16.33;;;10.35;;
56726;SDS011;42609;52.700;6.236;2023-04-15T07:16:18;15.80;;;10.68;;
56726;SDS011;42609;52.700;6.236;2023-04-15T07:18:44;16.98;;;9.82;;
56726;SDS011;42609;52.700;6.236;2023-04-15T07:21:09;14.23;;;9.50;;
56726;SDS011;42609;52.700;6.236;2023-04-15T07:23:35;16.85;;;10.45;;
56726;SDS011;42609;52.700;6.236;2023-04-15T07:26:01;18.33;;;10.07;;
56726;SDS011;42609;52.700;6.236;2023-04-15T07:28:27;15.52;;;10.00;;
56726;SDS011;42609;52.700;6.236;2023-04-15T07:30:53;12.65;;;9.15;;
56726;SDS011;42609;52.700;6.236;2023-04-15T07:33:19;14.52;;;9.40;;
56726;SDS011;42609;52.700;6.236;2023-04-15T07:35:45;15.65;;;9.10;;
56726;SDS011;42609;52.700;6.236;2023-04-15T07:38:11;14.13;;;9.18;;
56726;SDS011;42609;52.700;6.236;2023-04-15T07:40:37;13.68;;;9.10;;
56726;SDS011;42609;52.700;6.236;2023-04-15T07:43:03;13.73;;;9.30;;
56726;SDS011;42609;52.700;6.236;2023-04-15T07:45:30;12.95;;;8.82;;
56726;SDS011;42609;52.700;6.236;2023-04-15T07:47:56;13.48;;;8.80;;
56726;SDS011;42609;52.700;6.236;2023-04-15T07:50:21;13.45;;;8.32;;
56726;SDS011;42609;52.700;6.236;2023-04-15T07:52:48;13.40;;;8.75;;
56726;SDS011;42609;52.700;6.236;2023-04-15T07:55:15;14.30;;;8.40;;
56726;SDS011;42609;52.700;6.236;2023-04-15T07:57:43;11.68;;;8.63;;
56726;SDS011;42609;52.700;6.236;2023-04-15T08:00:09;13.20;;;8.20;;
56726;SDS011;42609;52.700;6.236;2023-04-15T08:02:35;12.52;;;7.97;;
56726;SDS011;42609;52.700;6.236;2023-04-15T08:05:01;13.68;;;8.43;;
56726;SDS011;42609;52.700;6.236;2023-04-15T08:07:28;12.73;;;8.05;;
56726;SDS011;42609;52.700;6.236;2023-04-15T08:09:54;12.18;;;8.05;;
56726;SDS011;42609;52.700;6.236;2023-04-15T08:12:20;13.02;;;7.82;;
56726;SDS011;42609;52.700;6.236;2023-04-15T08:14:45;10.77;;;7.20;;
56726;SDS011;42609;52.700;6.236;2023-04-15T08:17:11;10.65;;;6.28;;
56726;SDS011;42609;52.700;6.236;2023-04-15T08:19:37;8.13;;;5.90;;
56726;SDS011;42609;52.700;6.236;2023-04-15T08:22:03;10.82;;;5.53;;
56726;SDS011;42609;52.700;6.236;2023-04-15T08:24:29;9.25;;;5.75;;
56726;SDS011;42609;52.700;6.236;2023-04-15T08:26:55;9.52;;;6.28;;
56726;SDS011;42609;52.700;6.236;2023-04-15T08:29:21;8.80;;;5.50;;
56726;SDS011;42609;52.700;6.236;2023-04-15T08:31:47;8.35;;;5.05;;
56726;SDS011;42609;52.700;6.236;2023-04-15T08:34:13;8.25;;;4.88;;
56726;SDS011;42609;52.700;6.236;2023-04-15T08:36:39;8.82;;;4.90;;
56726;SDS011;42609;52.700;6.236;2023-04-15T08:39:05;7.93;;;4.93;;
56726;SDS011;42609;52.700;6.236;2023-04-15T08:41:41;11.82;;;5.80;;
56726;SDS011;42609;52.700;6.236;2023-04-15T08:44:13;8.85;;;5.03;;
56726;SDS011;42609;52.700;6.236;2023-04-15T08:46:40;9.07;;;5.43;;
56726;SDS011;42609;52.700;6.236;2023-04-15T08:49:08;9.18;;;5.32;;
56726;SDS011;42609;52.700;6.236;2023-04-15T08:51:36;9.07;;;5.40;;
56726;SDS011;42609;52.700;6.236;2023-04-15T08:54:04;8.55;;;5.40;;
56726;SDS011;42609;52.700;6.236;2023-04-15T08:56:30;8.43;;;5.43;;
56726;SDS011;42609;52.700;6.236;2023-04-15T08:58:57;11.52;;;5.07;;
56726;SDS011;42609;52.700;6.236;2023-04-15T09:01:23;7.93;;;4.95;;
56726;SDS011;42609;52.700;6.236;2023-04-15T09:03:49;7.63;;;4.63;;
56726;SDS011;42609;52.700;6.236;2023-04-15T09:06:16;7.80;;;4.35;;
56726;SDS011;42609;52.700;6.236;2023-04-15T09:08:42;6.70;;;3.85;;
56726;SDS011;42609;52.700;6.236;2023-04-15T09:11:08;7.25;;;3.85;;
56726;SDS011;42609;52.700;6.236;2023-04-15T09:13:34;6.47;;;3.50;;
56726;SDS011;42609;52.700;6.236;2023-04-15T09:16:03;6.53;;;3.85;;
56726;SDS011;42609;52.700;6.236;2023-04-15T09:18:31;7.13;;;4.00;;
56726;SDS011;42609;52.700;6.236;2023-04-15T09:21:04;6.95;;;4.15;;
56726;SDS011;42609;52.700;6.236;2023-04-15T09:23:31;8.57;;;3.72;;
56726;SDS011;42609;52.700;6.236;2023-04-15T09:25:57;8.38;;;4.13;;
56726;SDS011;42609;52.700;6.236;2023-04-15T09:28:23;7.35;;;4.00;;
56726;SDS011;42609;52.700;6.236;2023-04-15T09:30:50;7.55;;;4.40;;
56726;SDS011;42609;52.700;6.236;2023-04-15T09:33:19;8.25;;;4.47;;
56726;SDS011;42609;52.700;6.236;2023-04-15T09:35:55;7.88;;;4.25;;
56726;SDS011;42609;52.700;6.236;2023-04-15T09:38:30;6.93;;;4.10;;
56726;SDS011;42609;52.700;6.236;2023-04-15T09:40:57;6.80;;;3.60;;
56726;SDS011;42609;52.700;6.236;2023-04-15T09:43:36;5.97;;;3.33;;
56726;SDS011;42609;52.700;6.236;2023-04-15T09:46:03;5.95;;;3.13;;
56726;SDS011;42609;52.700;6.236;2023-04-15T09:48:29;9.10;;;3.60;;
56726;SDS011;42609;52.700;6.236;2023-04-15T09:50:58;5.32;;;3.28;;
56726;SDS011;42609;52.700;6.236;2023-04-15T09:53:24;6.30;;;3.00;;
56726;SDS011;42609;52.700;6.236;2023-04-15T09:55:51;7.63;;;3.13;;
56726;SDS011;42609;52.700;6.236;2023-04-15T09:58:36;6.93;;;3.10;;
56726;SDS011;42609;52.700;6.236;2023-04-15T10:01:03;6.28;;;2.92;;
56726;SDS011;42609;52.700;6.236;2023-04-15T10:03:33;6.35;;;2.70;;
56726;SDS011;42609;52.700;6.236;2023-04-15T10:06:02;5.47;;;2.35;;
56726;SDS011;42609;52.700;6.236;2023-04-15T10:08:30;5.32;;;2.25;;
56726;SDS011;42609;52.700;6.236;2023-04-15T10:10:57;4.78;;;2.40;;
56726;SDS011;42609;52.700;6.236;2023-04-15T10:13:28;5.82;;;2.33;;
56726;SDS011;42609;52.700;6.236;2023-04-15T10:18:37;5.30;;;2.33;;
56726;SDS011;42609;52.700;6.236;2023-04-15T10:21:07;6.45;;;3.05;;
56726;SDS011;42609;52.700;6.236;2023-04-15T10:23:33;5.97;;;2.78;;
56726;SDS011;42609;52.700;6.236;2023-04-15T10:25:59;6.43;;;2.72;;
56726;SDS011;42609;52.700;6.236;2023-04-15T10:28:26;6.18;;;2.90;;
56726;SDS011;42609;52.700;6.236;2023-04-15T10:30:52;4.82;;;2.50;;
56726;SDS011;42609;52.700;6.236;2023-04-15T10:33:19;7.43;;;2.70;;
56726;SDS011;42609;52.700;6.236;2023-04-15T10:35:48;6.63;;;2.58;;
56726;SDS011;42609;52.700;6.236;2023-04-15T10:38:33;6.40;;;2.10;;
56726;SDS011;42609;52.700;6.236;2023-04-15T10:43:49;5.32;;;2.20;;
56726;SDS011;42609;52.700;6.236;2023-04-15T10:46:21;7.22;;;2.22;;
56726;SDS011;42609;52.700;6.236;2023-04-15T10:48:49;4.07;;;1.73;;
56726;SDS011;42609;52.700;6.236;2023-04-15T10:51:25;4.68;;;1.90;;
56726;SDS011;42609;52.700;6.236;2023-04-15T10:53:55;5.30;;;1.90;;
56726;SDS011;42609;52.700;6.236;2023-04-15T10:56:21;5.50;;;1.90;;
56726;SDS011;42609;52.700;6.236;2023-04-15T10:58:47;4.40;;;1.70;;
56726;SDS011;42609;52.700;6.236;2023-04-15T11:01:13;4.22;;;1.75;;
56726;SDS011;42609;52.700;6.236;2023-04-15T11:03:39;4.03;;;1.67;;
56726;SDS011;42609;52.700;6.236;2023-04-15T11:06:07;3.42;;;1.60;;
56726;SDS011;42609;52.700;6.236;2023-04-15T11:11:22;4.47;;;1.40;;
56726;SDS011;42609;52.700;6.236;2023-04-15T11:14:08;5.05;;;1.40;;
56726;SDS011;42609;52.700;6.236;2023-04-15T11:16:43;2.30;;;1.10;;
56726;SDS011;42609;52.700;6.236;2023-04-15T11:19:09;5.03;;;1.40;;
56726;SDS011;42609;52.700;6.236;2023-04-15T11:21:34;2.25;;;1.10;;
56726;SDS011;42609;52.700;6.236;2023-04-15T11:24:00;2.33;;;1.20;;
56726;SDS011;42609;52.700;6.236;2023-04-15T11:26:26;2.70;;;1.23;;
56726;SDS011;42609;52.700;6.236;2023-04-15T11:28:51;4.63;;;1.20;;
56726;SDS011;42609;52.700;6.236;2023-04-15T11:31:18;1.90;;;1.10;;
56726;SDS011;42609;52.700;6.236;2023-04-15T11:33:45;2.22;;;1.23;;
56726;SDS011;42609;52.700;6.236;2023-04-15T11:36:11;2.40;;;1.15;;
56726;SDS011;42609;52.700;6.236;2023-04-15T11:38:41;3.15;;;1.17;;
56726;SDS011;42609;52.700;6.236;2023-04-15T11:41:07;5.05;;;1.67;;
56726;SDS011;42609;52.700;6.236;2023-04-15T11:43:32;3.03;;;1.33;;
56726;SDS011;42609;52.700;6.236;2023-04-15T11:46:00;3.13;;;1.45;;
56726;SDS011;42609;52.700;6.236;2023-04-15T11:48:26;2.83;;;1.40;;
56726;SDS011;42609;52.700;6.236;2023-04-15T11:51:01;3.50;;;1.40;;
56726;SDS011;42609;52.700;6.236;2023-04-15T11:53:44;4.03;;;1.45;;
56726;SDS011;42609;52.700;6.236;2023-04-15T11:58:47;3.10;;;1.58;;
56726;SDS011;42609;52.700;6.236;2023-04-15T12:01:17;3.72;;;1.55;;
56726;SDS011;42609;52.700;6.236;2023-04-15T12:03:46;3.95;;;1.50;;
56726;SDS011;42609;52.700;6.236;2023-04-15T12:08:49;4.07;;;1.58;;
56726;SDS011;42609;52.700;6.236;2023-04-15T12:16:34;3.60;;;1.50;;
56726;SDS011;42609;52.700;6.236;2023-04-15T12:19:11;4.22;;;1.55;;
56726;SDS011;42609;52.700;6.236;2023-04-15T12:21:38;3.88;;;1.40;;
56726;SDS011;42609;52.700;6.236;2023-04-15T12:24:06;5.18;;;1.55;;
56726;SDS011;42609;52.700;6.236;2023-04-15T12:29:07;6.53;;;1.77;;
56726;SDS011;42609;52.700;6.236;2023-04-15T12:31:34;4.38;;;1.45;;
56726;SDS011;42609;52.700;6.236;2023-04-15T12:34:06;4.50;;;1.80;;
56726;SDS011;42609;52.700;6.236;2023-04-15T12:36:32;4.60;;;1.70;;
56726;SDS011;42609;52.700;6.236;2023-04-15T12:39:04;3.95;;;1.45;;
56726;SDS011;42609;52.700;6.236;2023-04-15T12:41:31;4.75;;;1.58;;
56726;SDS011;42609;52.700;6.236;2023-04-15T12:43:57;5.75;;;1.70;;
56726;SDS011;42609;52.700;6.236;2023-04-15T12:46:23;5.20;;;1.98;;
56726;SDS011;42609;52.700;6.236;2023-04-15T12:48:49;3.67;;;1.80;;
56726;SDS011;42609;52.700;6.236;2023-04-15T12:51:16;7.10;;;1.90;;
56726;SDS011;42609;52.700;6.236;2023-04-15T12:53:41;6.18;;;2.00;;
56726;SDS011;42609;52.700;6.236;2023-04-15T12:56:07;6.65;;;2.20;;
56726;SDS011;42609;52.700;6.236;2023-04-15T12:58:32;5.13;;;2.00;;
56726;SDS011;42609;52.700;6.236;2023-04-15T13:00:58;6.35;;;2.30;;
56726;SDS011;42609;52.700;6.236;2023-04-15T13:03:24;7.70;;;2.42;;
56726;SDS011;42609;52.700;6.236;2023-04-15T13:05:49;6.55;;;2.30;;
56726;SDS011;42609;52.700;6.236;2023-04-15T13:08:15;10.15;;;2.30;;
56726;SDS011;42609;52.700;6.236;2023-04-15T13:10:41;6.47;;;2.08;;
56726;SDS011;42609;52.700;6.236;2023-04-15T13:13:06;9.55;;;1.98;;
56726;SDS011;42609;52.700;6.236;2023-04-15T13:15:32;7.13;;;1.63;;
56726;SDS011;42609;52.700;6.236;2023-04-15T13:17:58;5.75;;;1.50;;
56726;SDS011;42609;52.700;6.236;2023-04-15T13:20:24;7.15;;;1.55;;
56726;SDS011;42609;52.700;6.236;2023-04-15T13:22:53;7.32;;;1.98;;
56726;SDS011;42609;52.700;6.236;2023-04-15T13:25:19;6.60;;;1.88;;
56726;SDS011;42609;52.700;6.236;2023-04-15T13:27:44;6.45;;;1.90;;
56726;SDS011;42609;52.700;6.236;2023-04-15T13:30:10;9.93;;;2.10;;
56726;SDS011;42609;52.700;6.236;2023-04-15T13:32:37;8.50;;;1.80;;
56726;SDS011;42609;52.700;6.236;2023-04-15T13:35:02;7.60;;;1.90;;
56726;SDS011;42609;52.700;6.236;2023-04-15T13:37:29;6.78;;;2.08;;
56726;SDS011;42609;52.700;6.236;2023-04-15T13:39:55;8.48;;;2.00;;
56726;SDS011;42609;52.700;6.236;2023-04-15T13:42:21;7.45;;;2.08;;
56726;SDS011;42609;52.700;6.236;2023-04-15T13:44:48;5.20;;;1.70;;
56726;SDS011;42609;52.700;6.236;2023-04-15T13:47:15;5.10;;;1.30;;
56726;SDS011;42609;52.700;6.236;2023-04-15T13:49:41;6.00;;;1.33;;
56726;SDS011;42609;52.700;6.236;2023-04-15T13:52:07;6.90;;;1.55;;
56726;SDS011;42609;52.700;6.236;2023-04-15T13:54:33;6.00;;;1.85;;
56726;SDS011;42609;52.700;6.236;2023-04-15T13:56:59;8.50;;;1.73;;
56726;SDS011;42609;52.700;6.236;2023-04-15T13:59:26;5.35;;;1.30;;
56726;SDS011;42609;52.700;6.236;2023-04-15T14:01:51;8.45;;;1.90;;
56726;SDS011;42609;52.700;6.236;2023-04-15T14:04:17;6.63;;;1.40;;
56726;SDS011;42609;52.700;6.236;2023-04-15T14:06:42;6.07;;;1.30;;
56726;SDS011;42609;52.700;6.236;2023-04-15T14:09:08;9.82;;;1.60;;
56726;SDS011;42609;52.700;6.236;2023-04-15T14:11:34;6.63;;;1.65;;
56726;SDS011;42609;52.700;6.236;2023-04-15T14:14:00;9.27;;;1.90;;
56726;SDS011;42609;52.700;6.236;2023-04-15T14:16:26;9.93;;;1.92;;
56726;SDS011;42609;52.700;6.236;2023-04-15T14:18:52;7.47;;;1.73;;
56726;SDS011;42609;52.700;6.236;2023-04-15T14:21:18;5.38;;;1.20;;
56726;SDS011;42609;52.700;6.236;2023-04-15T14:23:43;6.78;;;1.40;;
56726;SDS011;42609;52.700;6.236;2023-04-15T14:26:09;5.68;;;1.33;;
56726;SDS011;42609;52.700;6.236;2023-04-15T14:28:35;8.68;;;1.50;;
56726;SDS011;42609;52.700;6.236;2023-04-15T14:31:02;7.28;;;1.48;;
56726;SDS011;42609;52.700;6.236;2023-04-15T14:33:27;6.03;;;1.17;;
56726;SDS011;42609;52.700;6.236;2023-04-15T14:35:53;8.23;;;1.88;;
56726;SDS011;42609;52.700;6.236;2023-04-15T14:38:19;9.05;;;1.52;;
56726;SDS011;42609;52.700;6.236;2023-04-15T14:40:46;7.22;;;1.40;;
56726;SDS011;42609;52.700;6.236;2023-04-15T14:43:12;5.93;;;1.38;;
56726;SDS011;42609;52.700;6.236;2023-04-15T14:45:37;9.85;;;1.55;;
56726;SDS011;42609;52.700;6.236;2023-04-15T14:48:03;9.93;;;1.42;;
56726;SDS011;42609;52.700;6.236;2023-04-15T14:50:30;6.88;;;1.35;;
56726;SDS011;42609;52.700;6.236;2023-04-15T14:52:56;7.38;;;1.52;;
56726;SDS011;42609;52.700;6.236;2023-04-15T14:55:22;4.55;;;1.40;;
56726;SDS011;42609;52.700;6.236;2023-04-15T14:57:48;8.57;;;1.85;;